sensor_id;sensor_type;location;lat;lon;timestamp;temperature;humidity
62998;DHT22;55949;52.590;7.330;2024-01-06T00:00:36;4.00;99.90
62998;DHT22;55949;52.590;7.330;2024-01-06T00:01:37;4.50;99.90
62998;DHT22;55949;52.590;7.330;2024-01-06T00:02:38;4.50;99.90
62998;DHT22;55949;52.590;7.330;2024-01-06T00:03:38;4.20;99.90
62998;DHT22;55949;52.590;7.330;2024-01-06T00:04:39;4.30;99.90
62998;DHT22;55949;52.590;7.330;2024-01-06T00:05:40;4.10;99.90
62998;DHT22;55949;52.590;7.330;2024-01-06T00:06:40;3.90;99.90
62998;DHT22;55949;52.590;7.330;2024-01-06T00:07:41;3.80;99.90
62998;DHT22;55949;52.590;7.330;2024-01-06T00:08:42;3.80;99.90
62998;DHT22;55949;52.590;7.330;2024-01-06T00:09:42;4.20;99.90
62998;DHT22;55949;52.590;7.330;2024-01-06T00:10:43;4.10;99.90
62998;DHT22;55949;52.590;7.330;2024-01-06T00:11:44;4.20;99.90
62998;DHT22;55949;52.590;7.330;2024-01-06T00:12:44;4.60;99.90
62998;DHT22;55949;52.590;7.330;2024-01-06T00:13:45;4.10;99.90
62998;DHT22;55949;52.590;7.330;2024-01-06T00:14:46;4.00;99.90
62998;DHT22;55949;52.590;7.330;2024-01-06T00:15:46;4.00;99.90
62998;DHT22;55949;52.590;7.330;2024-01-06T00:16:47;4.00;99.90
62998;DHT22;55949;52.590;7.330;2024-01-06T00:17:48;4.00;99.90
62998;DHT22;55949;52.590;7.330;2024-01-06T00:18:49;4.10;99.90
62998;DHT22;55949;52.590;7.330;2024-01-06T00:19:49;4.20;99.90
62998;DHT22;55949;52.590;7.330;2024-01-06T00:20:51;4.10;99.90
62998;DHT22;55949;52.590;7.330;2024-01-06T00:21:52;4.20;99.90
62998;DHT22;55949;52.590;7.330;2024-01-06T00:22:53;4.70;99.90
62998;DHT22;55949;52.590;7.330;2024-01-06T00:23:53;4.90;99.90
62998;DHT22;55949;52.590;7.330;2024-01-06T00:24:56;4.20;99.90
62998;DHT22;55949;52.590;7.330;2024-01-06T00:25:57;4.10;99.90
62998;DHT22;55949;52.590;7.330;2024-01-06T00:26:57;4.30;99.90
62998;DHT22;55949;52.590;7.330;2024-01-06T00:27:58;3.90;99.90
62998;DHT22;55949;52.590;7.330;2024-01-06T00:28:58;3.80;99.90
62998;DHT22;55949;52.590;7.330;2024-01-06T00:29:59;4.30;99.90
62998;DHT22;55949;52.590;7.330;2024-01-06T00:31:00;3.90;99.90
62998;DHT22;55949;52.590;7.330;2024-01-06T00:32:00;3.70;99.90
62998;DHT22;55949;52.590;7.330;2024-01-06T00:33:01;3.50;99.90
62998;DHT22;55949;52.590;7.330;2024-01-06T00:34:02;3.60;99.90
62998;DHT22;55949;52.590;7.330;2024-01-06T00:35:04;3.50;99.90
62998;DHT22;55949;52.590;7.330;2024-01-06T00:36:07;3.70;99.90
62998;DHT22;55949;52.590;7.330;2024-01-06T00:37:07;3.70;99.90
62998;DHT22;55949;52.590;7.330;2024-01-06T00:38:08;3.60;99.90
62998;DHT22;55949;52.590;7.330;2024-01-06T00:39:09;3.50;99.90
62998;DHT22;55949;52.590;7.330;2024-01-06T00:40:10;3.90;99.90
62998;DHT22;55949;52.590;7.330;2024-01-06T00:41:10;4.00;99.90
62998;DHT22;55949;52.590;7.330;2024-01-06T00:42:11;3.70;99.90
62998;DHT22;55949;52.590;7.330;2024-01-06T00:43:12;3.80;99.90
62998;DHT22;55949;52.590;7.330;2024-01-06T00:44:12;4.20;99.90
62998;DHT22;55949;52.590;7.330;2024-01-06T00:45:13;4.20;99.90
62998;DHT22;55949;52.590;7.330;2024-01-06T00:46:14;3.80;99.90
62998;DHT22;55949;52.590;7.330;2024-01-06T00:47:14;3.80;99.90
62998;DHT22;55949;52.590;7.330;2024-01-06T00:48:15;3.90;99.90
62998;DHT22;55949;52.590;7.330;2024-01-06T00:49:16;3.70;99.90
62998;DHT22;55949;52.590;7.330;2024-01-06T00:50:18;3.70;99.90
62998;DHT22;55949;52.590;7.330;2024-01-06T00:51:19;3.90;99.90
62998;DHT22;55949;52.590;7.330;2024-01-06T00:52:20;3.80;99.90
62998;DHT22;55949;52.590;7.330;2024-01-06T00:53:21;3.70;99.90
62998;DHT22;55949;52.590;7.330;2024-01-06T00:54:22;4.10;99.90
62998;DHT22;55949;52.590;7.330;2024-01-06T00:55:23;4.20;99.90
62998;DHT22;55949;52.590;7.330;2024-01-06T00:56:24;4.10;99.90
62998;DHT22;55949;52.590;7.330;2024-01-06T00:57:27;3.90;99.90
62998;DHT22;55949;52.590;7.330;2024-01-06T00:58:28;3.70;99.90
62998;DHT22;55949;52.590;7.330;2024-01-06T00:59:28;3.60;99.90
62998;DHT22;55949;52.590;7.330;2024-01-06T01:00:29;3.70;99.90
62998;DHT22;55949;52.590;7.330;2024-01-06T01:01:31;3.60;99.90
62998;DHT22;55949;52.590;7.330;2024-01-06T01:02:32;3.70;99.90
62998;DHT22;55949;52.590;7.330;2024-01-06T01:03:32;3.70;99.90
62998;DHT22;55949;52.590;7.330;2024-01-06T01:04:33;3.70;99.90
62998;DHT22;55949;52.590;7.330;2024-01-06T01:05:34;3.80;99.90
62998;DHT22;55949;52.590;7.330;2024-01-06T01:06:36;3.70;99.90
62998;DHT22;55949;52.590;7.330;2024-01-06T01:07:37;3.50;99.90
62998;DHT22;55949;52.590;7.330;2024-01-06T01:08:38;3.50;99.90
62998;DHT22;55949;52.590;7.330;2024-01-06T01:09:38;3.60;99.90
62998;DHT22;55949;52.590;7.330;2024-01-06T01:10:39;3.50;99.90
62998;DHT22;55949;52.590;7.330;2024-01-06T01:11:40;3.40;99.90
62998;DHT22;55949;52.590;7.330;2024-01-06T01:12:44;3.40;99.90
62998;DHT22;55949;52.590;7.330;2024-01-06T01:13:44;3.40;99.90
62998;DHT22;55949;52.590;7.330;2024-01-06T01:14:45;3.40;99.90
62998;DHT22;55949;52.590;7.330;2024-01-06T01:15:46;3.50;99.90
62998;DHT22;55949;52.590;7.330;2024-01-06T01:16:46;3.70;99.90
62998;DHT22;55949;52.590;7.330;2024-01-06T01:17:47;3.70;99.90
62998;DHT22;55949;52.590;7.330;2024-01-06T01:18:47;3.70;99.90
62998;DHT22;55949;52.590;7.330;2024-01-06T01:19:48;3.60;99.90
62998;DHT22;55949;52.590;7.330;2024-01-06T01:20:49;3.90;99.90
62998;DHT22;55949;52.590;7.330;2024-01-06T01:21:49;3.70;99.90
62998;DHT22;55949;52.590;7.330;2024-01-06T01:22:50;3.60;99.90
62998;DHT22;55949;52.590;7.330;2024-01-06T01:23:51;3.50;99.90
62998;DHT22;55949;52.590;7.330;2024-01-06T01:24:51;3.40;99.90
62998;DHT22;55949;52.590;7.330;2024-01-06T01:25:53;3.30;99.90
62998;DHT22;55949;52.590;7.330;2024-01-06T01:26:54;3.20;99.90
62998;DHT22;55949;52.590;7.330;2024-01-06T01:27:54;3.30;99.90
62998;DHT22;55949;52.590;7.330;2024-01-06T01:28:55;3.30;99.90
62998;DHT22;55949;52.590;7.330;2024-01-06T01:29:56;3.30;99.90
62998;DHT22;55949;52.590;7.330;2024-01-06T01:30:56;3.30;99.90
62998;DHT22;55949;52.590;7.330;2024-01-06T01:31:57;3.30;99.90
62998;DHT22;55949;52.590;7.330;2024-01-06T01:32:58;3.30;99.90
62998;DHT22;55949;52.590;7.330;2024-01-06T01:33:59;3.20;99.90
62998;DHT22;55949;52.590;7.330;2024-01-06T01:34:59;3.20;99.90
62998;DHT22;55949;52.590;7.330;2024-01-06T01:36:00;3.20;99.90
62998;DHT22;55949;52.590;7.330;2024-01-06T01:37:01;3.50;99.90
62998;DHT22;55949;52.590;7.330;2024-01-06T01:38:01;3.50;99.90
62998;DHT22;55949;52.590;7.330;2024-01-06T01:39:03;3.30;99.90
62998;DHT22;55949;52.590;7.330;2024-01-06T01:40:04;3.30;99.90
62998;DHT22;55949;52.590;7.330;2024-01-06T01:41:05;3.30;99.90
62998;DHT22;55949;52.590;7.330;2024-01-06T01:42:05;3.20;99.90
62998;DHT22;55949;52.590;7.330;2024-01-06T01:43:18;3.20;99.90
62998;DHT22;55949;52.590;7.330;2024-01-06T01:44:19;3.10;99.90
62998;DHT22;55949;52.590;7.330;2024-01-06T01:45:19;3.10;99.90
62998;DHT22;55949;52.590;7.330;2024-01-06T01:46:20;3.20;99.90
62998;DHT22;55949;52.590;7.330;2024-01-06T01:47:21;3.20;99.90
62998;DHT22;55949;52.590;7.330;2024-01-06T01:48:22;3.10;99.90
62998;DHT22;55949;52.590;7.330;2024-01-06T01:49:25;3.10;99.90
62998;DHT22;55949;52.590;7.330;2024-01-06T01:50:25;3.00;99.90
62998;DHT22;55949;52.590;7.330;2024-01-06T01:51:30;2.90;99.90
62998;DHT22;55949;52.590;7.330;2024-01-06T01:52:31;3.00;99.90
62998;DHT22;55949;52.590;7.330;2024-01-06T01:53:33;3.10;99.90
62998;DHT22;55949;52.590;7.330;2024-01-06T01:54:33;3.20;99.90
62998;DHT22;55949;52.590;7.330;2024-01-06T01:55:35;3.10;99.90
62998;DHT22;55949;52.590;7.330;2024-01-06T01:56:36;3.00;99.90
62998;DHT22;55949;52.590;7.330;2024-01-06T01:57:38;3.10;99.90
62998;DHT22;55949;52.590;7.330;2024-01-06T01:58:39;3.20;99.90
62998;DHT22;55949;52.590;7.330;2024-01-06T01:59:41;3.10;99.90
62998;DHT22;55949;52.590;7.330;2024-01-06T02:00:42;3.00;99.90
62998;DHT22;55949;52.590;7.330;2024-01-06T02:01:43;2.90;99.90
62998;DHT22;55949;52.590;7.330;2024-01-06T02:02:50;2.80;99.90
62998;DHT22;55949;52.590;7.330;2024-01-06T02:03:51;2.80;99.90
62998;DHT22;55949;52.590;7.330;2024-01-06T02:04:51;2.70;99.90
62998;DHT22;55949;52.590;7.330;2024-01-06T02:05:52;2.70;99.90
62998;DHT22;55949;52.590;7.330;2024-01-06T02:06:52;2.80;99.90
62998;DHT22;55949;52.590;7.330;2024-01-06T02:07:53;2.90;99.90
62998;DHT22;55949;52.590;7.330;2024-01-06T02:08:59;2.90;99.90
62998;DHT22;55949;52.590;7.330;2024-01-06T02:10:00;3.30;99.90
62998;DHT22;55949;52.590;7.330;2024-01-06T02:11:01;3.60;99.90
62998;DHT22;55949;52.590;7.330;2024-01-06T02:12:02;3.20;99.90
62998;DHT22;55949;52.590;7.330;2024-01-06T02:13:12;3.10;99.90
62998;DHT22;55949;52.590;7.330;2024-01-06T02:14:13;3.00;99.90
62998;DHT22;55949;52.590;7.330;2024-01-06T02:15:13;2.90;99.90
62998;DHT22;55949;52.590;7.330;2024-01-06T02:16:14;3.00;99.90
62998;DHT22;55949;52.590;7.330;2024-01-06T02:17:15;3.00;99.90
62998;DHT22;55949;52.590;7.330;2024-01-06T02:18:16;3.00;99.90
62998;DHT22;55949;52.590;7.330;2024-01-06T02:19:17;3.10;99.90
62998;DHT22;55949;52.590;7.330;2024-01-06T02:20:19;3.00;99.90
62998;DHT22;55949;52.590;7.330;2024-01-06T02:21:21;3.20;99.90
62998;DHT22;55949;52.590;7.330;2024-01-06T02:22:23;3.00;99.90
62998;DHT22;55949;52.590;7.330;2024-01-06T02:23:23;3.10;99.90
62998;DHT22;55949;52.590;7.330;2024-01-06T02:24:24;3.10;99.90
62998;DHT22;55949;52.590;7.330;2024-01-06T02:25:24;3.10;99.90
62998;DHT22;55949;52.590;7.330;2024-01-06T02:26:25;3.00;99.90
62998;DHT22;55949;52.590;7.330;2024-01-06T02:27:26;3.00;99.90
62998;DHT22;55949;52.590;7.330;2024-01-06T02:28:26;3.10;99.90
62998;DHT22;55949;52.590;7.330;2024-01-06T02:29:30;3.10;99.90
62998;DHT22;55949;52.590;7.330;2024-01-06T02:30:30;3.10;99.90
62998;DHT22;55949;52.590;7.330;2024-01-06T02:31:31;3.40;99.90
62998;DHT22;55949;52.590;7.330;2024-01-06T02:32:32;3.30;99.90
62998;DHT22;55949;52.590;7.330;2024-01-06T02:33:32;3.20;99.90
62998;DHT22;55949;52.590;7.330;2024-01-06T02:34:33;3.10;99.90
62998;DHT22;55949;52.590;7.330;2024-01-06T02:35:35;3.00;99.90
62998;DHT22;55949;52.590;7.330;2024-01-06T02:36:36;3.30;99.90
62998;DHT22;55949;52.590;7.330;2024-01-06T02:37:36;3.20;99.90
62998;DHT22;55949;52.590;7.330;2024-01-06T02:38:37;3.30;99.90
62998;DHT22;55949;52.590;7.330;2024-01-06T02:39:38;3.10;99.90
62998;DHT22;55949;52.590;7.330;2024-01-06T02:40:38;3.10;99.90
62998;DHT22;55949;52.590;7.330;2024-01-06T02:41:39;3.00;99.90
62998;DHT22;55949;52.590;7.330;2024-01-06T02:42:40;2.80;99.90
62998;DHT22;55949;52.590;7.330;2024-01-06T02:43:40;2.90;99.90
62998;DHT22;55949;52.590;7.330;2024-01-06T02:44:41;2.90;99.90
62998;DHT22;55949;52.590;7.330;2024-01-06T02:45:41;2.90;99.90
62998;DHT22;55949;52.590;7.330;2024-01-06T02:46:42;3.10;99.90
62998;DHT22;55949;52.590;7.330;2024-01-06T02:47:43;2.90;99.90
62998;DHT22;55949;52.590;7.330;2024-01-06T02:48:43;2.90;99.90
62998;DHT22;55949;52.590;7.330;2024-01-06T02:49:44;2.90;99.90
62998;DHT22;55949;52.590;7.330;2024-01-06T02:50:44;2.80;99.90
62998;DHT22;55949;52.590;7.330;2024-01-06T02:51:45;3.00;99.90
62998;DHT22;55949;52.590;7.330;2024-01-06T02:52:47;2.90;99.90
62998;DHT22;55949;52.590;7.330;2024-01-06T02:53:47;3.00;99.90
62998;DHT22;55949;52.590;7.330;2024-01-06T02:54:48;2.70;99.90
62998;DHT22;55949;52.590;7.330;2024-01-06T02:55:48;2.70;99.90
62998;DHT22;55949;52.590;7.330;2024-01-06T02:56:49;2.60;99.90
62998;DHT22;55949;52.590;7.330;2024-01-06T02:57:50;2.70;99.90
62998;DHT22;55949;52.590;7.330;2024-01-06T02:58:50;2.60;99.90
62998;DHT22;55949;52.590;7.330;2024-01-06T02:59:51;2.70;99.90
62998;DHT22;55949;52.590;7.330;2024-01-06T03:00:51;2.80;99.90
62998;DHT22;55949;52.590;7.330;2024-01-06T03:01:52;2.70;99.90
62998;DHT22;55949;52.590;7.330;2024-01-06T03:02:53;2.70;99.90
62998;DHT22;55949;52.590;7.330;2024-01-06T03:03:56;2.60;99.90
62998;DHT22;55949;52.590;7.330;2024-01-06T03:04:57;2.60;99.90
62998;DHT22;55949;52.590;7.330;2024-01-06T03:05:57;2.60;99.90
62998;DHT22;55949;52.590;7.330;2024-01-06T03:06:58;2.70;99.90
62998;DHT22;55949;52.590;7.330;2024-01-06T03:07:58;2.70;99.90
62998;DHT22;55949;52.590;7.330;2024-01-06T03:08:59;2.70;99.90
62998;DHT22;55949;52.590;7.330;2024-01-06T03:10:00;2.70;99.90
62998;DHT22;55949;52.590;7.330;2024-01-06T03:11:01;2.60;99.90
62998;DHT22;55949;52.590;7.330;2024-01-06T03:12:05;2.40;99.90
62998;DHT22;55949;52.590;7.330;2024-01-06T03:13:06;2.40;99.90
62998;DHT22;55949;52.590;7.330;2024-01-06T03:14:07;2.50;99.90
62998;DHT22;55949;52.590;7.330;2024-01-06T03:15:08;2.70;99.90
62998;DHT22;55949;52.590;7.330;2024-01-06T03:16:11;2.50;99.90
62998;DHT22;55949;52.590;7.330;2024-01-06T03:17:12;2.50;99.90
62998;DHT22;55949;52.590;7.330;2024-01-06T03:18:12;2.60;99.90
62998;DHT22;55949;52.590;7.330;2024-01-06T03:19:13;2.40;99.90
62998;DHT22;55949;52.590;7.330;2024-01-06T03:20:14;2.40;99.90
62998;DHT22;55949;52.590;7.330;2024-01-06T03:21:20;2.30;99.90
62998;DHT22;55949;52.590;7.330;2024-01-06T03:22:21;2.40;99.90
62998;DHT22;55949;52.590;7.330;2024-01-06T03:23:22;2.30;99.90
62998;DHT22;55949;52.590;7.330;2024-01-06T03:24:24;2.40;99.90
62998;DHT22;55949;52.590;7.330;2024-01-06T03:25:25;2.60;99.90
62998;DHT22;55949;52.590;7.330;2024-01-06T03:26:26;2.70;99.90
62998;DHT22;55949;52.590;7.330;2024-01-06T03:27:26;2.60;99.90
62998;DHT22;55949;52.590;7.330;2024-01-06T03:28:27;2.50;99.90
62998;DHT22;55949;52.590;7.330;2024-01-06T03:29:27;2.50;99.90
62998;DHT22;55949;52.590;7.330;2024-01-06T03:30:28;2.50;99.90
62998;DHT22;55949;52.590;7.330;2024-01-06T03:31:29;2.30;99.90
62998;DHT22;55949;52.590;7.330;2024-01-06T03:32:30;2.30;99.90
62998;DHT22;55949;52.590;7.330;2024-01-06T03:33:31;2.40;99.90
62998;DHT22;55949;52.590;7.330;2024-01-06T03:34:31;2.40;99.90
62998;DHT22;55949;52.590;7.330;2024-01-06T03:35:32;2.50;99.90
62998;DHT22;55949;52.590;7.330;2024-01-06T03:36:33;2.40;99.90
62998;DHT22;55949;52.590;7.330;2024-01-06T03:37:34;2.50;99.90
62998;DHT22;55949;52.590;7.330;2024-01-06T03:38:34;2.50;99.90
62998;DHT22;55949;52.590;7.330;2024-01-06T03:39:35;2.60;99.90
62998;DHT22;55949;52.590;7.330;2024-01-06T03:40:36;2.40;99.90
62998;DHT22;55949;52.590;7.330;2024-01-06T03:41:36;2.40;99.90
62998;DHT22;55949;52.590;7.330;2024-01-06T03:42:38;2.40;99.90
62998;DHT22;55949;52.590;7.330;2024-01-06T03:43:38;2.30;99.90
62998;DHT22;55949;52.590;7.330;2024-01-06T03:44:39;2.30;99.90
62998;DHT22;55949;52.590;7.330;2024-01-06T03:45:39;2.30;99.90
62998;DHT22;55949;52.590;7.330;2024-01-06T03:46:40;2.30;99.90
62998;DHT22;55949;52.590;7.330;2024-01-06T03:47:41;2.30;99.90
62998;DHT22;55949;52.590;7.330;2024-01-06T03:48:41;2.30;99.90
62998;DHT22;55949;52.590;7.330;2024-01-06T03:49:42;2.10;99.90
62998;DHT22;55949;52.590;7.330;2024-01-06T03:50:43;2.10;99.90
62998;DHT22;55949;52.590;7.330;2024-01-06T03:51:43;2.00;99.90
62998;DHT22;55949;52.590;7.330;2024-01-06T03:52:44;2.00;99.90
62998;DHT22;55949;52.590;7.330;2024-01-06T03:53:44;2.00;99.90
62998;DHT22;55949;52.590;7.330;2024-01-06T03:54:45;2.00;99.90
62998;DHT22;55949;52.590;7.330;2024-01-06T03:55:46;2.00;99.90
62998;DHT22;55949;52.590;7.330;2024-01-06T03:56:46;2.00;99.90
62998;DHT22;55949;52.590;7.330;2024-01-06T03:57:47;2.10;99.90
62998;DHT22;55949;52.590;7.330;2024-01-06T03:58:47;2.20;99.90
62998;DHT22;55949;52.590;7.330;2024-01-06T03:59:48;2.20;99.90
62998;DHT22;55949;52.590;7.330;2024-01-06T04:00:49;2.10;99.90
62998;DHT22;55949;52.590;7.330;2024-01-06T04:01:49;2.10;99.90
62998;DHT22;55949;52.590;7.330;2024-01-06T04:02:50;2.10;99.90
62998;DHT22;55949;52.590;7.330;2024-01-06T04:03:51;2.10;99.90
62998;DHT22;55949;52.590;7.330;2024-01-06T04:04:51;2.00;99.90
62998;DHT22;55949;52.590;7.330;2024-01-06T04:05:52;2.10;99.90
62998;DHT22;55949;52.590;7.330;2024-01-06T04:06:53;2.10;99.90
62998;DHT22;55949;52.590;7.330;2024-01-06T04:07:53;2.20;99.90
62998;DHT22;55949;52.590;7.330;2024-01-06T04:08:54;2.10;99.90
62998;DHT22;55949;52.590;7.330;2024-01-06T04:09:55;2.10;99.90
62998;DHT22;55949;52.590;7.330;2024-01-06T04:10:55;2.10;99.90
62998;DHT22;55949;52.590;7.330;2024-01-06T04:11:56;2.10;99.90
62998;DHT22;55949;52.590;7.330;2024-01-06T04:12:57;2.00;99.90
62998;DHT22;55949;52.590;7.330;2024-01-06T04:13:57;1.90;99.90
62998;DHT22;55949;52.590;7.330;2024-01-06T04:14:58;2.00;99.90
62998;DHT22;55949;52.590;7.330;2024-01-06T04:15:59;2.10;99.90
62998;DHT22;55949;52.590;7.330;2024-01-06T04:17:00;2.10;99.90
62998;DHT22;55949;52.590;7.330;2024-01-06T04:18:04;2.30;99.90
62998;DHT22;55949;52.590;7.330;2024-01-06T04:19:05;2.20;99.90
62998;DHT22;55949;52.590;7.330;2024-01-06T04:20:08;2.30;99.90
62998;DHT22;55949;52.590;7.330;2024-01-06T04:21:11;2.50;99.90
62998;DHT22;55949;52.590;7.330;2024-01-06T04:22:12;2.20;99.90
62998;DHT22;55949;52.590;7.330;2024-01-06T04:23:13;2.20;99.90
62998;DHT22;55949;52.590;7.330;2024-01-06T04:24:13;2.30;99.90
62998;DHT22;55949;52.590;7.330;2024-01-06T04:25:14;2.20;99.90
62998;DHT22;55949;52.590;7.330;2024-01-06T04:26:15;2.20;99.90
62998;DHT22;55949;52.590;7.330;2024-01-06T04:27:15;2.20;99.90
62998;DHT22;55949;52.590;7.330;2024-01-06T04:28:16;2.10;99.90
62998;DHT22;55949;52.590;7.330;2024-01-06T04:29:17;2.20;99.90
62998;DHT22;55949;52.590;7.330;2024-01-06T04:30:18;2.10;99.90
62998;DHT22;55949;52.590;7.330;2024-01-06T04:31:19;2.10;99.90
62998;DHT22;55949;52.590;7.330;2024-01-06T04:32:20;2.10;99.90
62998;DHT22;55949;52.590;7.330;2024-01-06T04:33:20;2.20;99.90
62998;DHT22;55949;52.590;7.330;2024-01-06T04:34:21;2.20;99.90
62998;DHT22;55949;52.590;7.330;2024-01-06T04:35:22;2.20;99.90
62998;DHT22;55949;52.590;7.330;2024-01-06T04:36:23;2.20;99.90
62998;DHT22;55949;52.590;7.330;2024-01-06T04:37:24;2.10;99.90
62998;DHT22;55949;52.590;7.330;2024-01-06T04:38:25;2.40;99.90
62998;DHT22;55949;52.590;7.330;2024-01-06T04:39:25;2.40;99.90
62998;DHT22;55949;52.590;7.330;2024-01-06T04:40:26;2.10;99.90
62998;DHT22;55949;52.590;7.330;2024-01-06T04:41:26;2.00;99.90
62998;DHT22;55949;52.590;7.330;2024-01-06T04:42:27;2.10;99.90
62998;DHT22;55949;52.590;7.330;2024-01-06T04:43:28;2.00;99.90
62998;DHT22;55949;52.590;7.330;2024-01-06T04:44:29;1.90;99.90
62998;DHT22;55949;52.590;7.330;2024-01-06T04:45:29;2.00;99.90
62998;DHT22;55949;52.590;7.330;2024-01-06T04:46:30;2.20;99.90
62998;DHT22;55949;52.590;7.330;2024-01-06T04:47:31;2.10;99.90
62998;DHT22;55949;52.590;7.330;2024-01-06T04:48:31;2.10;99.90
62998;DHT22;55949;52.590;7.330;2024-01-06T04:49:32;2.00;99.90
62998;DHT22;55949;52.590;7.330;2024-01-06T04:50:33;2.00;99.90
62998;DHT22;55949;52.590;7.330;2024-01-06T04:51:33;1.90;99.90
62998;DHT22;55949;52.590;7.330;2024-01-06T04:52:34;1.80;99.90
62998;DHT22;55949;52.590;7.330;2024-01-06T04:53:35;2.00;99.90
62998;DHT22;55949;52.590;7.330;2024-01-06T04:54:36;1.90;99.90
62998;DHT22;55949;52.590;7.330;2024-01-06T04:55:36;1.90;99.90
62998;DHT22;55949;52.590;7.330;2024-01-06T04:56:37;2.10;99.90
62998;DHT22;55949;52.590;7.330;2024-01-06T04:57:38;2.10;99.90
62998;DHT22;55949;52.590;7.330;2024-01-06T04:58:38;2.00;99.90
62998;DHT22;55949;52.590;7.330;2024-01-06T04:59:39;1.90;99.90
62998;DHT22;55949;52.590;7.330;2024-01-06T05:00:42;2.00;99.90
62998;DHT22;55949;52.590;7.330;2024-01-06T05:01:43;1.90;99.90
62998;DHT22;55949;52.590;7.330;2024-01-06T05:02:44;1.80;99.90
62998;DHT22;55949;52.590;7.330;2024-01-06T05:03:45;2.00;99.90
62998;DHT22;55949;52.590;7.330;2024-01-06T05:04:45;1.80;99.90
62998;DHT22;55949;52.590;7.330;2024-01-06T05:05:46;1.80;99.90
62998;DHT22;55949;52.590;7.330;2024-01-06T05:06:47;1.80;99.90
62998;DHT22;55949;52.590;7.330;2024-01-06T05:07:49;1.70;99.90
62998;DHT22;55949;52.590;7.330;2024-01-06T05:08:50;1.80;99.90
62998;DHT22;55949;52.590;7.330;2024-01-06T05:09:51;2.00;99.90
62998;DHT22;55949;52.590;7.330;2024-01-06T05:10:52;2.00;99.90
62998;DHT22;55949;52.590;7.330;2024-01-06T05:11:54;2.00;99.90
62998;DHT22;55949;52.590;7.330;2024-01-06T05:12:54;1.80;99.90
62998;DHT22;55949;52.590;7.330;2024-01-06T05:13:55;1.90;99.90
62998;DHT22;55949;52.590;7.330;2024-01-06T05:14:56;2.00;99.90
62998;DHT22;55949;52.590;7.330;2024-01-06T05:15:56;2.00;99.90
62998;DHT22;55949;52.590;7.330;2024-01-06T05:16:57;2.00;99.90
62998;DHT22;55949;52.590;7.330;2024-01-06T05:17:58;2.00;99.90
62998;DHT22;55949;52.590;7.330;2024-01-06T05:18:58;2.00;99.90
62998;DHT22;55949;52.590;7.330;2024-01-06T05:19:59;1.90;99.90
62998;DHT22;55949;52.590;7.330;2024-01-06T05:21:01;1.90;99.90
62998;DHT22;55949;52.590;7.330;2024-01-06T05:22:02;1.80;99.90
62998;DHT22;55949;52.590;7.330;2024-01-06T05:23:03;1.70;99.90
62998;DHT22;55949;52.590;7.330;2024-01-06T05:24:04;1.70;99.90
62998;DHT22;55949;52.590;7.330;2024-01-06T05:25:05;1.90;99.90
62998;DHT22;55949;52.590;7.330;2024-01-06T05:26:05;1.70;99.90
62998;DHT22;55949;52.590;7.330;2024-01-06T05:27:06;1.80;99.90
62998;DHT22;55949;52.590;7.330;2024-01-06T05:28:07;1.80;99.90
62998;DHT22;55949;52.590;7.330;2024-01-06T05:29:07;1.60;99.90
62998;DHT22;55949;52.590;7.330;2024-01-06T05:30:08;1.70;99.90
62998;DHT22;55949;52.590;7.330;2024-01-06T05:31:09;1.80;99.90
62998;DHT22;55949;52.590;7.330;2024-01-06T05:32:09;2.00;99.90
62998;DHT22;55949;52.590;7.330;2024-01-06T05:33:11;2.00;99.90
62998;DHT22;55949;52.590;7.330;2024-01-06T05:34:13;1.90;99.90
62998;DHT22;55949;52.590;7.330;2024-01-06T05:35:16;1.90;99.90
62998;DHT22;55949;52.590;7.330;2024-01-06T05:36:19;1.80;99.90
62998;DHT22;55949;52.590;7.330;2024-01-06T05:37:20;1.90;99.90
62998;DHT22;55949;52.590;7.330;2024-01-06T05:38:21;1.80;99.90
62998;DHT22;55949;52.590;7.330;2024-01-06T05:39:22;1.60;99.90
62998;DHT22;55949;52.590;7.330;2024-01-06T05:40:23;1.70;99.90
62998;DHT22;55949;52.590;7.330;2024-01-06T05:41:24;1.90;99.90
62998;DHT22;55949;52.590;7.330;2024-01-06T05:42:24;1.90;99.90
62998;DHT22;55949;52.590;7.330;2024-01-06T05:43:25;2.00;99.90
62998;DHT22;55949;52.590;7.330;2024-01-06T05:44:26;1.90;99.90
62998;DHT22;55949;52.590;7.330;2024-01-06T05:45:26;2.10;99.90
62998;DHT22;55949;52.590;7.330;2024-01-06T05:46:27;2.20;99.90
62998;DHT22;55949;52.590;7.330;2024-01-06T05:47:28;2.00;99.90
62998;DHT22;55949;52.590;7.330;2024-01-06T05:48:28;2.00;99.90
62998;DHT22;55949;52.590;7.330;2024-01-06T05:49:29;2.00;99.90
62998;DHT22;55949;52.590;7.330;2024-01-06T05:50:30;2.20;99.90
62998;DHT22;55949;52.590;7.330;2024-01-06T05:51:30;2.30;99.90
62998;DHT22;55949;52.590;7.330;2024-01-06T05:52:31;2.00;99.90
62998;DHT22;55949;52.590;7.330;2024-01-06T05:53:32;2.10;99.90
62998;DHT22;55949;52.590;7.330;2024-01-06T05:54:33;1.90;99.90
62998;DHT22;55949;52.590;7.330;2024-01-06T05:55:33;1.80;99.90
62998;DHT22;55949;52.590;7.330;2024-01-06T05:56:34;1.70;99.90
62998;DHT22;55949;52.590;7.330;2024-01-06T05:57:35;1.80;99.90
62998;DHT22;55949;52.590;7.330;2024-01-06T05:58:36;1.90;99.90
62998;DHT22;55949;52.590;7.330;2024-01-06T05:59:36;1.80;99.90
62998;DHT22;55949;52.590;7.330;2024-01-06T06:00:37;1.90;99.90
62998;DHT22;55949;52.590;7.330;2024-01-06T06:01:38;1.90;99.90
62998;DHT22;55949;52.590;7.330;2024-01-06T06:02:38;1.70;99.90
62998;DHT22;55949;52.590;7.330;2024-01-06T06:03:40;1.80;99.90
62998;DHT22;55949;52.590;7.330;2024-01-06T06:04:40;1.80;99.90
62998;DHT22;55949;52.590;7.330;2024-01-06T06:05:41;1.80;99.90
62998;DHT22;55949;52.590;7.330;2024-01-06T06:06:42;2.00;99.90
62998;DHT22;55949;52.590;7.330;2024-01-06T06:07:42;1.90;99.90
62998;DHT22;55949;52.590;7.330;2024-01-06T06:08:44;1.80;99.90
62998;DHT22;55949;52.590;7.330;2024-01-06T06:09:45;1.80;99.90
62998;DHT22;55949;52.590;7.330;2024-01-06T06:10:47;1.70;99.90
62998;DHT22;55949;52.590;7.330;2024-01-06T06:12:11;1.70;99.90
62998;DHT22;55949;52.590;7.330;2024-01-06T06:13:11;1.70;99.90
62998;DHT22;55949;52.590;7.330;2024-01-06T06:14:12;2.10;99.90
62998;DHT22;55949;52.590;7.330;2024-01-06T06:15:16;2.00;99.90
62998;DHT22;55949;52.590;7.330;2024-01-06T06:16:16;2.00;99.90
62998;DHT22;55949;52.590;7.330;2024-01-06T06:17:17;2.00;99.90
62998;DHT22;55949;52.590;7.330;2024-01-06T06:18:17;1.90;99.90
62998;DHT22;55949;52.590;7.330;2024-01-06T06:19:18;1.70;99.90
62998;DHT22;55949;52.590;7.330;2024-01-06T06:20:19;1.80;99.90
62998;DHT22;55949;52.590;7.330;2024-01-06T06:21:19;1.80;99.90
62998;DHT22;55949;52.590;7.330;2024-01-06T06:22:20;1.90;99.90
62998;DHT22;55949;52.590;7.330;2024-01-06T06:23:22;2.00;99.90
62998;DHT22;55949;52.590;7.330;2024-01-06T06:24:23;1.80;99.90
62998;DHT22;55949;52.590;7.330;2024-01-06T06:25:23;1.60;99.90
62998;DHT22;55949;52.590;7.330;2024-01-06T06:26:24;1.70;99.90
62998;DHT22;55949;52.590;7.330;2024-01-06T06:27:25;1.70;99.90
62998;DHT22;55949;52.590;7.330;2024-01-06T06:28:26;1.80;99.90
62998;DHT22;55949;52.590;7.330;2024-01-06T06:29:27;1.70;99.90
62998;DHT22;55949;52.590;7.330;2024-01-06T06:30:29;1.70;99.90
62998;DHT22;55949;52.590;7.330;2024-01-06T06:31:29;1.70;99.90